sensor_id;sensor_type;location;lat;lon;timestamp;pressure;altitude;pressure_sealevel;temperature;humidity
75513;BME280;64090;49.770;18.760;2024-01-10T00:01:55;99273.02;;;-16.99;81.42
75513;BME280;64090;49.770;18.760;2024-01-10T00:04:58;99272.34;;;-16.99;81.35
75513;BME280;64090;49.770;18.760;2024-01-10T00:08:01;99279.27;;;-17.00;81.40
75513;BME280;64090;49.770;18.760;2024-01-10T00:11:04;99283.16;;;-17.01;81.49
75513;BME280;64090;49.770;18.760;2024-01-10T00:14:07;99283.17;;;-17.02;81.47
75513;BME280;64090;49.770;18.760;2024-01-10T00:17:10;99280.13;;;-17.02;81.53
75513;BME280;64090;49.770;18.760;2024-01-10T00:20:13;99282.83;;;-17.04;81.46
75513;BME280;64090;49.770;18.760;2024-01-10T00:23:16;99279.27;;;-17.05;81.60
75513;BME280;64090;49.770;18.760;2024-01-10T00:26:19;99274.68;;;-17.08;81.68
75513;BME280;64090;49.770;18.760;2024-01-10T00:29:22;99272.13;;;-17.13;81.48
75513;BME280;64090;49.770;18.760;2024-01-10T00:32:25;99273.64;;;-17.20;81.19
75513;BME280;64090;49.770;18.760;2024-01-10T00:35:31;99269.91;;;-17.26;81.04
75513;BME280;64090;49.770;18.760;2024-01-10T00:38:36;99266.84;;;-17.29;81.04
75513;BME280;64090;49.770;18.760;2024-01-10T00:41:39;99263.61;;;-17.32;81.49
75513;BME280;64090;49.770;18.760;2024-01-10T00:44:42;99262.78;;;-17.28;81.63
75513;BME280;64090;49.770;18.760;2024-01-10T00:47:45;99261.61;;;-17.22;81.90
75513;BME280;64090;49.770;18.760;2024-01-10T00:50:48;99256.88;;;-17.17;81.86
75513;BME280;64090;49.770;18.760;2024-01-10T00:53:51;99253.51;;;-17.15;82.60
75513;BME280;64090;49.770;18.760;2024-01-10T00:56:54;99247.91;;;-17.12;82.48
75513;BME280;64090;49.770;18.760;2024-01-10T00:59:57;99243.85;;;-17.08;82.81
75513;BME280;64090;49.770;18.760;2024-01-10T01:02:59;99243.86;;;-17.09;82.98
75513;BME280;64090;49.770;18.760;2024-01-10T01:06:02;99243.51;;;-17.09;83.23
75513;BME280;64090;49.770;18.760;2024-01-10T01:09:05;99237.93;;;-17.07;82.61
75513;BME280;64090;49.770;18.760;2024-01-10T01:12:08;99239.45;;;-17.01;82.26
75513;BME280;64090;49.770;18.760;2024-01-10T01:15:11;99239.80;;;-16.95;81.99
75513;BME280;64090;49.770;18.760;2024-01-10T01:18:14;99239.30;;;-16.88;81.68
75513;BME280;64090;49.770;18.760;2024-01-10T01:21:17;99238.62;;;-16.82;81.24
75513;BME280;64090;49.770;18.760;2024-01-10T01:24:20;99237.42;;;-16.75;81.17
75513;BME280;64090;49.770;18.760;2024-01-10T01:27:23;99231.31;;;-16.68;81.14
75513;BME280;64090;49.770;18.760;2024-01-10T01:30:26;99233.52;;;-16.61;81.13
75513;BME280;64090;49.770;18.760;2024-01-10T01:33:29;99234.53;;;-16.55;80.99
75513;BME280;64090;49.770;18.760;2024-01-10T01:36:32;99230.64;;;-16.52;80.87
75513;BME280;64090;49.770;18.760;2024-01-10T01:39:35;99228.42;;;-16.49;80.75
75513;BME280;64090;49.770;18.760;2024-01-10T01:42:38;99224.17;;;-16.47;80.73
75513;BME280;64090;49.770;18.760;2024-01-10T01:45:41;99222.14;;;-16.46;80.87
75513;BME280;64090;49.770;18.760;2024-01-10T01:48:44;99220.79;;;-16.49;80.85
75513;BME280;64090;49.770;18.760;2024-01-10T01:51:48;99225.87;;;-16.49;80.78
75513;BME280;64090;49.770;18.760;2024-01-10T01:54:51;99229.10;;;-16.48;80.58
75513;BME280;64090;49.770;18.760;2024-01-10T01:57:54;99231.48;;;-16.48;80.55
75513;BME280;64090;49.770;18.760;2024-01-10T02:00:58;99231.64;;;-16.49;80.55
75513;BME280;64090;49.770;18.760;2024-01-10T02:04:01;99233.67;;;-16.49;80.53
75513;BME280;64090;49.770;18.760;2024-01-10T02:07:05;99235.21;;;-16.50;80.58
75513;BME280;64090;49.770;18.760;2024-01-10T02:10:08;99231.30;;;-16.50;80.62
75513;BME280;64090;49.770;18.760;2024-01-10T02:13:11;99228.08;;;-16.50;80.63
75513;BME280;64090;49.770;18.760;2024-01-10T02:16:15;99226.38;;;-16.52;80.58
75513;BME280;64090;49.770;18.760;2024-01-10T02:19:20;99226.73;;;-16.54;80.59
75513;BME280;64090;49.770;18.760;2024-01-10T02:22:23;99221.13;;;-16.61;80.78
75513;BME280;64090;49.770;18.760;2024-01-10T02:25:25;99225.88;;;-16.64;80.66
75513;BME280;64090;49.770;18.760;2024-01-10T02:28:28;99222.67;;;-16.63;80.77
75513;BME280;64090;49.770;18.760;2024-01-10T02:31:31;99224.54;;;-16.64;80.56
75513;BME280;64090;49.770;18.760;2024-01-10T02:34:34;99222.31;;;-16.71;80.46
75513;BME280;64090;49.770;18.760;2024-01-10T02:37:37;99226.91;;;-16.77;80.36
75513;BME280;64090;49.770;18.760;2024-01-10T02:40:40;99228.29;;;-16.81;80.47
75513;BME280;64090;49.770;18.760;2024-01-10T02:43:43;99226.09;;;-16.83;80.51
75513;BME280;64090;49.770;18.760;2024-01-10T02:46:46;99217.27;;;-16.85;80.43
75513;BME280;64090;49.770;18.760;2024-01-10T02:49:49;99218.46;;;-16.85;80.37
75513;BME280;64090;49.770;18.760;2024-01-10T02:52:52;99218.29;;;-16.86;80.19
75513;BME280;64090;49.770;18.760;2024-01-10T02:55:55;99220.33;;;-16.89;80.25
75513;BME280;64090;49.770;18.760;2024-01-10T02:58:57;99219.48;;;-16.92;80.81
75513;BME280;64090;49.770;18.760;2024-01-10T03:06:17;99210.83;;;-16.89;80.90
75513;BME280;64090;49.770;18.760;2024-01-10T03:09:23;99206.77;;;-16.87;81.93
75513;BME280;64090;49.770;18.760;2024-01-10T03:12:26;99207.95;;;-16.85;82.18
75513;BME280;64090;49.770;18.760;2024-01-10T03:15:29;99207.10;;;-16.81;81.77
75513;BME280;64090;49.770;18.760;2024-01-10T03:18:33;99210.48;;;-16.78;81.74
75513;BME280;64090;49.770;18.760;2024-01-10T03:21:36;99202.33;;;-16.75;81.83
75513;BME280;64090;49.770;18.760;2024-01-10T03:24:39;99201.48;;;-16.73;82.57
75513;BME280;64090;49.770;18.760;2024-01-10T03:27:42;99206.55;;;-16.71;83.32
75513;BME280;64090;49.770;18.760;2024-01-10T03:30:45;99207.58;;;-16.68;83.12
75513;BME280;64090;49.770;18.760;2024-01-10T03:33:48;99207.23;;;-16.64;82.52
75513;BME280;64090;49.770;18.760;2024-01-10T03:36:51;99206.21;;;-16.60;82.14
75513;BME280;64090;49.770;18.760;2024-01-10T03:39:54;99206.21;;;-16.55;81.82
75513;BME280;64090;49.770;18.760;2024-01-10T03:42:57;99201.98;;;-16.50;81.80
75513;BME280;64090;49.770;18.760;2024-01-10T03:46:00;99195.52;;;-16.45;82.39
75513;BME280;64090;49.770;18.760;2024-01-10T03:49:03;99194.66;;;-16.39;81.95
75513;BME280;64090;49.770;18.760;2024-01-10T03:52:06;99190.58;;;-16.34;81.75
75513;BME280;64090;49.770;18.760;2024-01-10T03:55:09;99193.95;;;-16.29;81.84
75513;BME280;64090;49.770;18.760;2024-01-10T03:58:12;99194.45;;;-16.24;81.79
75513;BME280;64090;49.770;18.760;2024-01-10T04:01:15;99192.74;;;-16.19;81.92
75513;BME280;64090;49.770;18.760;2024-01-10T04:04:18;99191.89;;;-16.13;81.81
75513;BME280;64090;49.770;18.760;2024-01-10T04:07:21;99188.13;;;-16.07;81.71
75513;BME280;64090;49.770;18.760;2024-01-10T04:10:25;99185.73;;;-15.99;81.71
75513;BME280;64090;49.770;18.760;2024-01-10T04:13:28;99184.67;;;-15.91;81.84
75513;BME280;64090;49.770;18.760;2024-01-10T04:16:31;99181.94;;;-15.83;81.98
75513;BME280;64090;49.770;18.760;2024-01-10T04:19:34;99178.16;;;-15.77;82.12
75513;BME280;64090;49.770;18.760;2024-01-10T04:22:37;99179.12;;;-15.68;82.83
75513;BME280;64090;49.770;18.760;2024-01-10T04:25:40;99186.55;;;-15.59;82.83
75513;BME280;64090;49.770;18.760;2024-01-10T04:28:43;99183.64;;;-15.55;82.74
75513;BME280;64090;49.770;18.760;2024-01-10T04:31:46;99184.80;;;-15.51;82.54
75513;BME280;64090;49.770;18.760;2024-01-10T04:34:49;99191.59;;;-15.47;82.64
75513;BME280;64090;49.770;18.760;2024-01-10T04:37:52;99192.59;;;-15.46;82.23
75513;BME280;64090;49.770;18.760;2024-01-10T04:40:55;99192.44;;;-15.48;82.16
75513;BME280;64090;49.770;18.760;2024-01-10T04:43:58;99195.14;;;-15.47;82.09
75513;BME280;64090;49.770;18.760;2024-01-10T04:47:01;99198.89;;;-15.48;81.97
75513;BME280;64090;49.770;18.760;2024-01-10T04:50:05;99199.55;;;-15.48;81.90
75513;BME280;64090;49.770;18.760;2024-01-10T04:53:12;99196.52;;;-15.49;81.72
75513;BME280;64090;49.770;18.760;2024-01-10T04:56:15;99195.16;;;-15.50;81.74
75513;BME280;64090;49.770;18.760;2024-01-10T04:59:17;99192.29;;;-15.52;81.70
75513;BME280;64090;49.770;18.760;2024-01-10T05:02:20;99194.54;;;-15.62;81.40
75513;BME280;64090;49.770;18.760;2024-01-10T05:05:23;99189.39;;;-15.80;80.92
75513;BME280;64090;49.770;18.760;2024-01-10T05:08:27;99184.39;;;-16.01;80.84
75513;BME280;64090;49.770;18.760;2024-01-10T05:11:30;99181.55;;;-16.18;81.11
75513;BME280;64090;49.770;18.760;2024-01-10T05:14:33;99184.44;;;-16.24;81.49
75513;BME280;64090;49.770;18.760;2024-01-10T05:17:36;99182.07;;;-16.25;82.40
75513;BME280;64090;49.770;18.760;2024-01-10T05:20:39;99184.27;;;-16.25;82.64
75513;BME280;64090;49.770;18.760;2024-01-10T05:23:42;99181.55;;;-16.25;82.46
75513;BME280;64090;49.770;18.760;2024-01-10T05:26:45;99182.39;;;-16.20;82.45
75513;BME280;64090;49.770;18.760;2024-01-10T05:29:47;99184.91;;;-16.11;82.42
75513;BME280;64090;49.770;18.760;2024-01-10T05:32:51;99184.04;;;-16.04;82.20
75513;BME280;64090;49.770;18.760;2024-01-10T05:35:54;99181.15;;;-16.02;82.06
75513;BME280;64090;49.770;18.760;2024-01-10T05:38:57;99175.20;;;-15.98;82.17
75513;BME280;64090;49.770;18.760;2024-01-10T05:42:00;99175.84;;;-15.88;82.27
75513;BME280;64090;49.770;18.760;2024-01-10T05:45:05;99175.11;;;-15.78;82.38
75513;BME280;64090;49.770;18.760;2024-01-10T05:48:08;99170.63;;;-15.67;82.38
75513;BME280;64090;49.770;18.760;2024-01-10T05:51:11;99167.85;;;-15.57;82.40
75513;BME280;64090;49.770;18.760;2024-01-10T05:54:14;99170.87;;;-15.49;82.46
75513;BME280;64090;49.770;18.760;2024-01-10T05:57:18;99169.98;;;-15.44;82.48
75513;BME280;64090;49.770;18.760;2024-01-10T06:00:21;99169.61;;;-15.38;82.39
75513;BME280;64090;49.770;18.760;2024-01-10T06:03:24;99165.17;;;-15.36;82.32
75513;BME280;64090;49.770;18.760;2024-01-10T06:06:27;99168.57;;;-15.34;82.07
75513;BME280;64090;49.770;18.760;2024-01-10T06:09:30;99165.48;;;-15.31;82.06
75513;BME280;64090;49.770;18.760;2024-01-10T06:12:33;99160.54;;;-15.26;82.12
75513;BME280;64090;49.770;18.760;2024-01-10T06:15:36;99163.19;;;-15.18;82.16
75513;BME280;64090;49.770;18.760;2024-01-10T06:18:39;99168.58;;;-15.09;82.36
75513;BME280;64090;49.770;18.760;2024-01-10T06:21:46;99168.67;;;-14.99;82.46
75513;BME280;64090;49.770;18.760;2024-01-10T06:24:49;99164.02;;;-14.91;82.55
75513;BME280;64090;49.770;18.760;2024-01-10T06:27:52;99158.48;;;-14.83;82.71
75513;BME280;64090;49.770;18.760;2024-01-10T06:30:55;99161.11;;;-14.71;82.76
75513;BME280;64090;49.770;18.760;2024-01-10T06:33:58;99168.70;;;-14.63;82.91
75513;BME280;64090;49.770;18.760;2024-01-10T06:37:01;99173.91;;;-14.55;82.93
75513;BME280;64090;49.770;18.760;2024-01-10T06:40:04;99170.58;;;-14.49;82.90
75513;BME280;64090;49.770;18.760;2024-01-10T06:43:08;99171.48;;;-14.37;83.26
75513;BME280;64090;49.770;18.760;2024-01-10T06:46:12;99166.00;;;-14.16;83.83
75513;BME280;64090;49.770;18.760;2024-01-10T06:49:15;99172.00;;;-13.91;84.53
75513;BME280;64090;49.770;18.760;2024-01-10T06:52:18;99176.70;;;-13.71;84.78
75513;BME280;64090;49.770;18.760;2024-01-10T06:55:21;99178.55;;;-13.55;85.09
75513;BME280;64090;49.770;18.760;2024-01-10T06:58:26;99172.69;;;-13.38;85.36
75513;BME280;64090;49.770;18.760;2024-01-10T07:01:29;99176.80;;;-13.17;85.34
75513;BME280;64090;49.770;18.760;2024-01-10T07:04:33;99176.67;;;-12.97;85.56
75513;BME280;64090;49.770;18.760;2024-01-10T07:07:35;99176.09;;;-12.82;85.64
75513;BME280;64090;49.770;18.760;2024-01-10T07:10:38;99177.38;;;-12.66;85.41
75513;BME280;64090;49.770;18.760;2024-01-10T07:13:42;99176.41;;;-12.50;85.45
75513;BME280;64090;49.770;18.760;2024-01-10T07:16:45;99174.58;;;-12.33;85.29
75513;BME280;64090;49.770;18.760;2024-01-10T07:19:50;99172.55;;;-12.15;85.24
75513;BME280;64090;49.770;18.760;2024-01-10T07:22:53;99169.70;;;-11.99;85.31
75513;BME280;64090;49.770;18.760;2024-01-10T07:25:57;99168.56;;;-11.86;85.09
75513;BME280;64090;49.770;18.760;2024-01-10T07:29:00;99174.41;;;-11.71;85.10
75513;BME280;64090;49.770;18.760;2024-01-10T07:32:05;99178.14;;;-11.61;85.08
75513;BME280;64090;49.770;18.760;2024-01-10T07:35:09;99176.47;;;-11.55;84.83
75513;BME280;64090;49.770;18.760;2024-01-10T07:38:12;99181.00;;;-11.43;85.15
75513;BME280;64090;49.770;18.760;2024-01-10T07:41:16;99178.04;;;-11.24;85.27
75513;BME280;64090;49.770;18.760;2024-01-10T07:44:19;99182.12;;;-11.01;85.41
75513;BME280;64090;49.770;18.760;2024-01-10T07:47:22;99182.73;;;-10.83;85.36
75513;BME280;64090;49.770;18.760;2024-01-10T07:54:00;99188.27;;;-10.43;85.10
75513;BME280;64090;49.770;18.760;2024-01-10T07:57:03;99188.73;;;-10.34;84.96
75513;BME280;64090;49.770;18.760;2024-01-10T08:00:07;99188.61;;;-10.18;85.35
75513;BME280;64090;49.770;18.760;2024-01-10T08:03:13;99187.41;;;-9.91;85.98
75513;BME280;64090;49.770;18.760;2024-01-10T08:06:17;99187.58;;;-9.66;85.65
75513;BME280;64090;49.770;18.760;2024-01-10T08:09:31;99186.59;;;-9.43;85.20
75513;BME280;64090;49.770;18.760;2024-01-10T08:12:34;99185.24;;;-9.27;84.51
75513;BME280;64090;49.770;18.760;2024-01-10T08:15:37;99184.44;;;-9.17;83.85
75513;BME280;64090;49.770;18.760;2024-01-10T08:18:39;99179.84;;;-9.07;83.53
75513;BME280;64090;49.770;18.760;2024-01-10T08:21:43;99184.19;;;-8.98;83.51
75513;BME280;64090;49.770;18.760;2024-01-10T08:24:46;99182.95;;;-8.85;83.44
75513;BME280;64090;49.770;18.760;2024-01-10T08:27:50;99183.20;;;-8.72;83.54
75513;BME280;64090;49.770;18.760;2024-01-10T08:30:54;99184.09;;;-8.46;83.62
75513;BME280;64090;49.770;18.760;2024-01-10T08:34:06;99188.02;;;-8.20;83.16
75513;BME280;64090;49.770;18.760;2024-01-10T08:37:09;99180.86;;;-7.97;82.92
75513;BME280;64090;49.770;18.760;2024-01-10T08:40:12;99183.11;;;-7.78;82.67
75513;BME280;64090;49.770;18.760;2024-01-10T08:43:17;99189.63;;;-7.58;82.69
75513;BME280;64090;49.770;18.760;2024-01-10T08:46:20;99189.67;;;-7.31;82.64
75513;BME280;64090;49.770;18.760;2024-01-10T08:49:23;99188.80;;;-7.17;81.98
75513;BME280;64090;49.770;18.760;2024-01-10T08:52:26;99183.55;;;-7.06;82.08
75513;BME280;64090;49.770;18.760;2024-01-10T08:55:29;99186.59;;;-6.86;82.20
75513;BME280;64090;49.770;18.760;2024-01-10T08:58:32;99181.47;;;-6.70;81.80
75513;BME280;64090;49.770;18.760;2024-01-10T09:04:41;99180.10;;;-6.37;81.57
75513;BME280;64090;49.770;18.760;2024-01-10T09:07:44;99172.66;;;-6.40;80.74
75513;BME280;64090;49.770;18.760;2024-01-10T09:10:47;99173.61;;;-6.38;81.12
75513;BME280;64090;49.770;18.760;2024-01-10T09:13:51;99168.48;;;-6.14;81.94
75513;BME280;64090;49.770;18.760;2024-01-10T09:16:54;99168.10;;;-5.82;81.84
75513;BME280;64090;49.770;18.760;2024-01-10T09:19:57;99164.73;;;-5.60;81.09
75513;BME280;64090;49.770;18.760;2024-01-10T09:23:00;99165.45;;;-5.53;81.06
75513;BME280;64090;49.770;18.760;2024-01-10T09:26:03;99164.89;;;-5.25;81.41
75513;BME280;64090;49.770;18.760;2024-01-10T09:29:06;99164.34;;;-4.99;81.15
75513;BME280;64090;49.770;18.760;2024-01-10T09:32:09;99161.38;;;-4.76;81.28
75513;BME280;64090;49.770;18.760;2024-01-10T09:35:12;99155.48;;;-4.58;80.85
75513;BME280;64090;49.770;18.760;2024-01-10T09:38:15;99152.85;;;-4.50;80.03
75513;BME280;64090;49.770;18.760;2024-01-10T09:41:20;99146.55;;;-4.49;80.45
75513;BME280;64090;49.770;18.760;2024-01-10T09:44:23;99147.46;;;-4.39;80.93
75513;BME280;64090;49.770;18.760;2024-01-10T09:47:27;99147.64;;;-4.19;81.12
75513;BME280;64090;49.770;18.760;2024-01-10T09:50:30;99143.48;;;-3.98;80.94
75513;BME280;64090;49.770;18.760;2024-01-10T09:53:35;99144.91;;;-3.79;81.08
75513;BME280;64090;49.770;18.760;2024-01-10T09:56:41;99144.13;;;-3.60;80.92
75513;BME280;64090;49.770;18.760;2024-01-10T09:59:44;99141.66;;;-3.46;80.56
75513;BME280;64090;49.770;18.760;2024-01-10T10:02:50;99141.72;;;-3.35;80.68
75513;BME280;64090;49.770;18.760;2024-01-10T10:05:54;99142.11;;;-3.23;80.50
75513;BME280;64090;49.770;18.760;2024-01-10T10:08:57;99138.42;;;-3.09;80.60
75513;BME280;64090;49.770;18.760;2024-01-10T10:12:00;99139.80;;;-2.96;80.33
75513;BME280;64090;49.770;18.760;2024-01-10T10:15:10;99136.98;;;-2.86;79.76
75513;BME280;64090;49.770;18.760;2024-01-10T10:18:13;99132.42;;;-2.76;79.90
75513;BME280;64090;49.770;18.760;2024-01-10T10:21:17;99131.98;;;-2.65;80.37
75513;BME280;64090;49.770;18.760;2024-01-10T10:24:20;99125.60;;;-2.54;80.59
75513;BME280;64090;49.770;18.760;2024-01-10T10:27:27;99126.92;;;-2.47;80.63
75513;BME280;64090;49.770;18.760;2024-01-10T10:30:32;99119.59;;;-2.40;79.49
75513;BME280;64090;49.770;18.760;2024-01-10T10:33:36;99114.98;;;-2.35;79.61
75513;BME280;64090;49.770;18.760;2024-01-10T10:36:42;99116.09;;;-2.33;78.99
75513;BME280;64090;49.770;18.760;2024-01-10T10:39:45;99115.08;;;-2.28;79.86
75513;BME280;64090;49.770;18.760;2024-01-10T10:42:52;99115.46;;;-2.20;79.78
75513;BME280;64090;49.770;18.760;2024-01-10T10:45:57;99116.53;;;-2.20;80.59
75513;BME280;64090;49.770;18.760;2024-01-10T10:49:06;99109.95;;;-2.38;80.50
75513;BME280;64090;49.770;18.760;2024-01-10T10:52:15;99108.95;;;-2.60;80.25
75513;BME280;64090;49.770;18.760;2024-01-10T10:55:19;99111.90;;;-2.75;80.49
75513;BME280;64090;49.770;18.760;2024-01-10T10:58:22;99114.27;;;-2.96;79.04
75513;BME280;64090;49.770;18.760;2024-01-10T11:01:27;99114.45;;;-3.18;79.23
75513;BME280;64090;49.770;18.760;2024-01-10T11:04:30;99117.70;;;-3.36;79.15
75513;BME280;64090;49.770;18.760;2024-01-10T11:07:41;99112.09;;;-3.48;78.76
75513;BME280;64090;49.770;18.760;2024-01-10T11:10:50;99106.17;;;-3.64;78.77
75513;BME280;64090;49.770;18.760;2024-01-10T11:28:02;99100.57;;;-3.62;78.09
75513;BME280;64090;49.770;18.760;2024-01-10T11:31:07;99104.10;;;-3.54;79.54
75513;BME280;64090;49.770;18.760;2024-01-10T11:34:15;99100.05;;;-3.53;79.25
75513;BME280;64090;49.770;18.760;2024-01-10T11:37:18;99098.38;;;-3.50;77.36
75513;BME280;64090;49.770;18.760;2024-01-10T11:40:47;99094.48;;;-3.46;76.71
75513;BME280;64090;49.770;18.760;2024-01-10T11:47:21;99094.44;;;-3.32;79.04
75513;BME280;64090;49.770;18.760;2024-01-10T11:50:24;99092.86;;;-3.29;79.07
75513;BME280;64090;49.770;18.760;2024-01-10T11:53:43;99096.19;;;-3.23;79.09
75513;BME280;64090;49.770;18.760;2024-01-10T11:56:49;99092.95;;;-3.15;79.38
75513;BME280;64090;49.770;18.760;2024-01-10T11:59:53;99087.85;;;-3.10;79.17
75513;BME280;64090;49.770;18.760;2024-01-10T12:02:57;99089.67;;;-3.06;78.46
75513;BME280;64090;49.770;18.760;2024-01-10T12:06:00;99091.62;;;-3.03;78.15
75513;BME280;64090;49.770;18.760;2024-01-10T12:09:04;99091.35;;;-2.95;77.97
75513;BME280;64090;49.770;18.760;2024-01-10T12:12:14;99097.09;;;-2.83;77.19
75513;BME280;64090;49.770;18.760;2024-01-10T12:15:17;99096.37;;;-2.76;76.23
75513;BME280;64090;49.770;18.760;2024-01-10T12:18:21;99096.89;;;-2.76;75.32
75513;BME280;64090;49.770;18.760;2024-01-10T12:21:24;99094.31;;;-2.80;75.17
75513;BME280;64090;49.770;18.760;2024-01-10T12:24:28;99090.80;;;-2.82;74.83
75513;BME280;64090;49.770;18.760;2024-01-10T12:27:33;99092.25;;;-2.83;75.61
75513;BME280;64090;49.770;18.760;2024-01-10T12:30:36;99095.37;;;-2.77;74.82
75513;BME280;64090;49.770;18.760;2024-01-10T12:33:39;99090.20;;;-2.78;74.64
75513;BME280;64090;49.770;18.760;2024-01-10T12:36:42;99088.02;;;-2.76;74.60
75513;BME280;64090;49.770;18.760;2024-01-10T12:39:46;99083.78;;;-2.75;74.70
75513;BME280;64090;49.770;18.760;2024-01-10T12:42:49;99086.28;;;-2.73;72.14
75513;BME280;64090;49.770;18.760;2024-01-10T12:46:08;99085.21;;;-2.60;72.54
75513;BME280;64090;49.770;18.760;2024-01-10T12:49:14;99083.12;;;-2.46;73.64
75513;BME280;64090;49.770;18.760;2024-01-10T12:52:18;99085.41;;;-2.34;74.43
75513;BME280;64090;49.770;18.760;2024-01-10T12:55:26;99081.11;;;-2.29;74.38
75513;BME280;64090;49.770;18.760;2024-01-10T12:58:31;99085.69;;;-2.21;74.23
75513;BME280;64090;49.770;18.760;2024-01-10T13:01:34;99083.98;;;-2.13;74.29
75513;BME280;64090;49.770;18.760;2024-01-10T13:04:37;99082.95;;;-2.04;74.50
75513;BME280;64090;49.770;18.760;2024-01-10T13:07:40;99083.22;;;-2.03;73.81
75513;BME280;64090;49.770;18.760;2024-01-10T13:10:43;99078.65;;;-2.02;73.72
75513;BME280;64090;49.770;18.760;2024-01-10T13:13:46;99078.88;;;-1.98;73.81
75513;BME280;64090;49.770;18.760;2024-01-10T13:16:49;99073.98;;;-1.94;73.31
75513;BME280;64090;49.770;18.760;2024-01-10T13:20:02;99067.80;;;-1.89;73.63
75513;BME280;64090;49.770;18.760;2024-01-10T13:23:06;99064.91;;;-1.87;73.17
75513;BME280;64090;49.770;18.760;2024-01-10T13:26:10;99057.30;;;-1.91;73.50
75513;BME280;64090;49.770;18.760;2024-01-10T13:29:14;99058.40;;;-2.01;73.39
75513;BME280;64090;49.770;18.760;2024-01-10T13:32:17;99054.25;;;-2.09;73.26
75513;BME280;64090;49.770;18.760;2024-01-10T13:35:20;99058.52;;;-2.14;73.17
75513;BME280;64090;49.770;18.760;2024-01-10T13:38:23;99057.30;;;-2.20;72.98
75513;BME280;64090;49.770;18.760;2024-01-10T13:41:27;99057.80;;;-2.25;73.16
75513;BME280;64090;49.770;18.760;2024-01-10T13:44:30;99056.66;;;-2.29;73.45
75513;BME280;64090;49.770;18.760;2024-01-10T13:47:33;99057.08;;;-2.33;73.31
75513;BME280;64090;49.770;18.760;2024-01-10T13:50:37;99052.94;;;-2.40;73.11
75513;BME280;64090;49.770;18.760;2024-01-10T13:53:40;99050.31;;;-2.45;73.26
75513;BME280;64090;49.770;18.760;2024-01-10T13:56:42;99049.45;;;-2.54;73.28
75513;BME280;64090;49.770;18.760;2024-01-10T13:59:45;99048.11;;;-2.64;73.26
75513;BME280;64090;49.770;18.760;2024-01-10T14:02:49;99043.39;;;-2.72;73.66
75513;BME280;64090;49.770;18.760;2024-01-10T14:05:52;99040.55;;;-2.83;73.66
75513;BME280;64090;49.770;18.760;2024-01-10T14:08:55;99040.48;;;-2.94;73.62
75513;BME280;64090;49.770;18.760;2024-01-10T14:12:00;99039.65;;;-3.04;73.65
75513;BME280;64090;49.770;18.760;2024-01-10T14:15:03;99037.81;;;-3.14;73.74
75513;BME280;64090;49.770;18.760;2024-01-10T14:18:06;99030.48;;;-3.26;73.86
75513;BME280;64090;49.770;18.760;2024-01-10T14:21:10;99027.20;;;-3.38;74.01
75513;BME280;64090;49.770;18.760;2024-01-10T14:28:17;99035.09;;;-3.65;74.44
75513;BME280;64090;49.770;18.760;2024-01-10T14:31:20;99035.56;;;-3.74;74.85
75513;BME280;64090;49.770;18.760;2024-01-10T14:34:40;99031.27;;;-3.81;75.59
75513;BME280;64090;49.770;18.760;2024-01-10T14:37:43;99028.34;;;-3.88;75.89
75513;BME280;64090;49.770;18.760;2024-01-10T14:40:46;99027.47;;;-3.94;75.78
75513;BME280;64090;49.770;18.760;2024-01-10T14:43:49;99024.44;;;-4.03;75.32
75513;BME280;64090;49.770;18.760;2024-01-10T14:46:52;99018.96;;;-4.14;74.98
75513;BME280;64090;49.770;18.760;2024-01-10T14:50:08;99014.45;;;-4.26;74.74
75513;BME280;64090;49.770;18.760;2024-01-10T14:53:11;99015.98;;;-4.39;74.80
75513;BME280;64090;49.770;18.760;2024-01-10T14:56:14;99011.40;;;-4.54;75.03
75513;BME280;64090;49.770;18.760;2024-01-10T14:59:17;99011.66;;;-4.70;75.02
75513;BME280;64090;49.770;18.760;2024-01-10T15:02:28;99012.38;;;-4.88;74.89
75513;BME280;64090;49.770;18.760;2024-01-10T15:05:30;99016.95;;;-5.03;75.06
75513;BME280;64090;49.770;18.760;2024-01-10T15:08:33;99019.41;;;-5.15;74.96
75513;BME280;64090;49.770;18.760;2024-01-10T15:11:38;99022.84;;;-5.28;75.12
75513;BME280;64090;49.770;18.760;2024-01-10T15:14:42;99025.67;;;-5.44;75.17
75513;BME280;64090;49.770;18.760;2024-01-10T15:17:45;99026.64;;;-5.61;75.19
75513;BME280;64090;49.770;18.760;2024-01-10T15:20:48;99025.68;;;-5.78;75.51
75513;BME280;64090;49.770;18.760;2024-01-10T15:23:51;99031.71;;;-5.93;75.70
75513;BME280;64090;49.770;18.760;2024-01-10T15:26:55;99026.14;;;-6.06;75.99
75513;BME280;64090;49.770;18.760;2024-01-10T15:30:01;99022.45;;;-6.16;77.06
75513;BME280;64090;49.770;18.760;2024-01-10T15:33:17;99014.36;;;-6.24;77.74
75513;BME280;64090;49.770;18.760;2024-01-10T15:36:21;99015.34;;;-6.31;77.70
75513;BME280;64090;49.770;18.760;2024-01-10T15:39:24;99017.37;;;-6.38;77.69
75513;BME280;64090;49.770;18.760;2024-01-10T15:42:27;99019.42;;;-6.45;77.27
75513;BME280;64090;49.770;18.760;2024-01-10T15:45:31;99020.70;;;-6.55;77.21
75513;BME280;64090;49.770;18.760;2024-01-10T15:48:34;99023.21;;;-6.65;77.06
75513;BME280;64090;49.770;18.760;2024-01-10T15:51:38;99022.83;;;-6.76;76.99
75513;BME280;64090;49.770;18.760;2024-01-10T15:54:40;99016.98;;;-6.89;77.09
75513;BME280;64090;49.770;18.760;2024-01-10T15:57:43;99017.55;;;-6.99;77.25
75513;BME280;64090;49.770;18.760;2024-01-10T16:00:49;99017.40;;;-7.07;77.53
75513;BME280;64090;49.770;18.760;2024-01-10T16:03:51;99021.74;;;-7.13;78.00
75513;BME280;64090;49.770;18.760;2024-01-10T16:06:56;99020.80;;;-7.15;78.36
75513;BME280;64090;49.770;18.760;2024-01-10T16:09:59;99019.77;;;-7.15;78.82
75513;BME280;64090;49.770;18.760;2024-01-10T16:13:02;99011.30;;;-7.14;79.15
75513;BME280;64090;49.770;18.760;2024-01-10T16:16:05;99010.94;;;-7.13;79.40
75513;BME280;64090;49.770;18.760;2024-01-10T16:19:11;99007.67;;;-7.14;79.78
75513;BME280;64090;49.770;18.760;2024-01-10T16:22:14;99002.53;;;-7.14;80.38
75513;BME280;64090;49.770;18.760;2024-01-10T16:25:17;99003.66;;;-7.17;80.20
75513;BME280;64090;49.770;18.760;2024-01-10T16:28:20;99000.25;;;-7.13;80.67